sensor_id;sensor_type;location;lat;lon;timestamp;pressure;altitude;pressure_sealevel;temperature;humidity
68169;BME280;54981;50.206;15.978;2023-02-07T00:00:47;101234.44;;;-8.22;100.00
68169;BME280;54981;50.206;15.978;2023-02-07T00:04:47;101233.72;;;-8.19;100.00
68169;BME280;54981;50.206;15.978;2023-02-07T00:08:48;101212.13;;;-8.05;100.00
68169;BME280;54981;50.206;15.978;2023-02-07T00:12:49;101205.19;;;-8.21;100.00
68169;BME280;54981;50.206;15.978;2023-02-07T00:16:49;101205.28;;;-8.19;100.00
68169;BME280;54981;50.206;15.978;2023-02-07T00:21:01;101219.94;;;-8.49;100.00
68169;BME280;54981;50.206;15.978;2023-02-07T00:25:02;101233.13;;;-8.60;100.00
68169;BME280;54981;50.206;15.978;2023-02-07T00:29:03;101243.03;;;-8.52;100.00
68169;BME280;54981;50.206;15.978;2023-02-07T00:33:03;101232.34;;;-8.44;100.00
68169;BME280;54981;50.206;15.978;2023-02-07T00:37:04;101231.19;;;-8.49;100.00
68169;BME280;54981;50.206;15.978;2023-02-07T00:41:06;101228.22;;;-8.40;100.00
68169;BME280;54981;50.206;15.978;2023-02-07T00:45:07;101224.91;;;-8.38;100.00
68169;BME280;54981;50.206;15.978;2023-02-07T00:49:07;101219.91;;;-8.35;100.00
68169;BME280;54981;50.206;15.978;2023-02-07T00:53:07;101206.81;;;-8.38;100.00
68169;BME280;54981;50.206;15.978;2023-02-07T00:57:08;101214.88;;;-8.48;100.00
68169;BME280;54981;50.206;15.978;2023-02-07T01:01:08;101221.53;;;-8.51;100.00
68169;BME280;54981;50.206;15.978;2023-02-07T01:05:08;101238.91;;;-8.64;100.00
68169;BME280;54981;50.206;15.978;2023-02-07T01:09:09;101248.00;;;-8.70;100.00
68169;BME280;54981;50.206;15.978;2023-02-07T01:13:10;101240.69;;;-8.77;100.00
68169;BME280;54981;50.206;15.978;2023-02-07T01:17:11;101223.13;;;-8.68;100.00
68169;BME280;54981;50.206;15.978;2023-02-07T01:21:20;101224.34;;;-8.63;100.00
68169;BME280;54981;50.206;15.978;2023-02-07T01:25:21;101216.22;;;-8.69;100.00
68169;BME280;54981;50.206;15.978;2023-02-07T01:29:21;101221.19;;;-8.72;100.00
68169;BME280;54981;50.206;15.978;2023-02-07T01:33:22;101220.31;;;-8.73;100.00
68169;BME280;54981;50.206;15.978;2023-02-07T01:37:22;101216.28;;;-8.83;100.00
68169;BME280;54981;50.206;15.978;2023-02-07T01:41:24;101206.22;;;-8.78;100.00
68169;BME280;54981;50.206;15.978;2023-02-07T01:45:31;101207.75;;;-8.82;100.00
68169;BME280;54981;50.206;15.978;2023-02-07T01:49:34;101199.00;;;-8.84;100.00
68169;BME280;54981;50.206;15.978;2023-02-07T01:53:36;101197.94;;;-8.87;100.00
68169;BME280;54981;50.206;15.978;2023-02-07T01:57:37;101193.28;;;-8.93;100.00
68169;BME280;54981;50.206;15.978;2023-02-07T02:01:38;101203.44;;;-9.11;100.00
68169;BME280;54981;50.206;15.978;2023-02-07T02:05:40;101199.53;;;-9.04;100.00
68169;BME280;54981;50.206;15.978;2023-02-07T02:09:41;101204.47;;;-9.07;100.00
68169;BME280;54981;50.206;15.978;2023-02-07T02:14:04;101189.53;;;-9.13;100.00
68169;BME280;54981;50.206;15.978;2023-02-07T02:18:34;101191.03;;;-9.16;100.00
68169;BME280;54981;50.206;15.978;2023-02-07T02:27:00;101200.84;;;-9.11;100.00
68169;BME280;54981;50.206;15.978;2023-02-07T02:43:46;101195.66;;;-9.26;100.00
68169;BME280;54981;50.206;15.978;2023-02-07T02:47:50;101192.38;;;-9.23;100.00
68169;BME280;54981;50.206;15.978;2023-02-07T02:51:51;101203.72;;;-9.34;100.00
68169;BME280;54981;50.206;15.978;2023-02-07T03:00:47;101199.97;;;-9.39;100.00
68169;BME280;54981;50.206;15.978;2023-02-07T03:13:23;101207.53;;;-9.43;100.00
68169;BME280;54981;50.206;15.978;2023-02-07T03:21:35;101214.16;;;-9.46;100.00
68169;BME280;54981;50.206;15.978;2023-02-07T03:25:39;101226.75;;;-9.51;100.00
68169;BME280;54981;50.206;15.978;2023-02-07T03:29:44;101228.94;;;-9.15;100.00
68169;BME280;54981;50.206;15.978;2023-02-07T03:33:47;101217.25;;;-9.24;100.00
68169;BME280;54981;50.206;15.978;2023-02-07T03:37:58;101210.31;;;-9.25;100.00
68169;BME280;54981;50.206;15.978;2023-02-07T03:42:04;101203.28;;;-9.27;100.00
68169;BME280;54981;50.206;15.978;2023-02-07T03:46:08;101222.88;;;-9.44;100.00
68169;BME280;54981;50.206;15.978;2023-02-07T03:50:10;101231.44;;;-9.45;100.00
68169;BME280;54981;50.206;15.978;2023-02-07T03:54:10;101224.13;;;-9.52;100.00
68169;BME280;54981;50.206;15.978;2023-02-07T03:58:11;101224.00;;;-9.54;100.00
68169;BME280;54981;50.206;15.978;2023-02-07T04:02:11;101220.44;;;-9.56;100.00
68169;BME280;54981;50.206;15.978;2023-02-07T04:06:12;101222.22;;;-9.55;100.00
68169;BME280;54981;50.206;15.978;2023-02-07T04:10:12;101226.47;;;-9.55;100.00
68169;BME280;54981;50.206;15.978;2023-02-07T04:14:12;101220.72;;;-9.51;100.00
68169;BME280;54981;50.206;15.978;2023-02-07T04:18:13;101210.94;;;-9.57;100.00
68169;BME280;54981;50.206;15.978;2023-02-07T04:22:13;101213.72;;;-9.67;100.00
68169;BME280;54981;50.206;15.978;2023-02-07T04:26:13;101213.66;;;-9.82;100.00
68169;BME280;54981;50.206;15.978;2023-02-07T04:30:14;101217.22;;;-9.93;100.00
68169;BME280;54981;50.206;15.978;2023-02-07T04:34:14;101226.94;;;-9.89;100.00
68169;BME280;54981;50.206;15.978;2023-02-07T04:38:14;101223.75;;;-9.98;100.00
68169;BME280;54981;50.206;15.978;2023-02-07T04:42:15;101231.13;;;-10.04;100.00
68169;BME280;54981;50.206;15.978;2023-02-07T04:46:15;101235.47;;;-10.03;100.00
68169;BME280;54981;50.206;15.978;2023-02-07T04:50:16;101237.66;;;-10.10;100.00
68169;BME280;54981;50.206;15.978;2023-02-07T04:54:16;101243.88;;;-10.06;100.00
68169;BME280;54981;50.206;15.978;2023-02-07T04:58:18;101238.03;;;-10.03;100.00
68169;BME280;54981;50.206;15.978;2023-02-07T05:02:18;101246.56;;;-10.04;100.00
68169;BME280;54981;50.206;15.978;2023-02-07T05:06:19;101237.63;;;-9.96;100.00
68169;BME280;54981;50.206;15.978;2023-02-07T05:10:19;101239.44;;;-9.95;100.00
68169;BME280;54981;50.206;15.978;2023-02-07T05:14:19;101244.19;;;-10.01;100.00
68169;BME280;54981;50.206;15.978;2023-02-07T05:18:20;101238.75;;;-10.06;100.00
68169;BME280;54981;50.206;15.978;2023-02-07T05:22:23;101236.06;;;-10.21;100.00
68169;BME280;54981;50.206;15.978;2023-02-07T05:26:23;101242.41;;;-10.16;100.00
68169;BME280;54981;50.206;15.978;2023-02-07T05:30:24;101249.19;;;-10.31;100.00
68169;BME280;54981;50.206;15.978;2023-02-07T05:34:24;101251.06;;;-10.28;100.00
68169;BME280;54981;50.206;15.978;2023-02-07T05:38:25;101255.47;;;-10.26;100.00
68169;BME280;54981;50.206;15.978;2023-02-07T05:42:25;101249.75;;;-10.09;100.00
68169;BME280;54981;50.206;15.978;2023-02-07T05:46:26;101263.53;;;-9.95;100.00
68169;BME280;54981;50.206;15.978;2023-02-07T05:50:26;101261.38;;;-9.47;100.00
68169;BME280;54981;50.206;15.978;2023-02-07T05:54:27;101256.88;;;-9.78;100.00
68169;BME280;54981;50.206;15.978;2023-02-07T05:58:27;101256.09;;;-9.90;100.00
68169;BME280;54981;50.206;15.978;2023-02-07T06:02:27;101242.41;;;-9.89;100.00
68169;BME280;54981;50.206;15.978;2023-02-07T06:06:28;101238.78;;;-9.65;100.00
68169;BME280;54981;50.206;15.978;2023-02-07T06:10:28;101245.69;;;-9.78;100.00
68169;BME280;54981;50.206;15.978;2023-02-07T06:14:28;101244.34;;;-9.72;100.00
68169;BME280;54981;50.206;15.978;2023-02-07T06:18:29;101244.38;;;-9.98;100.00
68169;BME280;54981;50.206;15.978;2023-02-07T06:22:29;101247.75;;;-9.99;100.00
68169;BME280;54981;50.206;15.978;2023-02-07T06:26:30;101263.34;;;-9.98;100.00
68169;BME280;54981;50.206;15.978;2023-02-07T06:30:31;101259.13;;;-9.96;100.00
68169;BME280;54981;50.206;15.978;2023-02-07T06:34:31;101254.41;;;-9.76;100.00
68169;BME280;54981;50.206;15.978;2023-02-07T06:38:31;101257.84;;;-9.89;100.00
68169;BME280;54981;50.206;15.978;2023-02-07T06:42:32;101252.41;;;-9.94;100.00
68169;BME280;54981;50.206;15.978;2023-02-07T06:46:32;101253.81;;;-9.86;100.00
68169;BME280;54981;50.206;15.978;2023-02-07T06:50:33;101243.16;;;-9.77;100.00
68169;BME280;54981;50.206;15.978;2023-02-07T06:54:33;101250.53;;;-9.83;100.00
68169;BME280;54981;50.206;15.978;2023-02-07T06:58:34;101249.91;;;-9.79;100.00
68169;BME280;54981;50.206;15.978;2023-02-07T07:02:34;101252.09;;;-9.72;100.00
68169;BME280;54981;50.206;15.978;2023-02-07T07:06:34;101257.81;;;-9.62;100.00
68169;BME280;54981;50.206;15.978;2023-02-07T07:10:35;101256.72;;;-9.39;100.00
68169;BME280;54981;50.206;15.978;2023-02-07T07:14:37;101271.78;;;-9.46;100.00
68169;BME280;54981;50.206;15.978;2023-02-07T07:18:38;101279.41;;;-9.34;100.00
68169;BME280;54981;50.206;15.978;2023-02-07T07:22:38;101277.50;;;-9.23;100.00
68169;BME280;54981;50.206;15.978;2023-02-07T07:26:39;101282.28;;;-9.01;100.00
68169;BME280;54981;50.206;15.978;2023-02-07T07:30:39;101287.88;;;-9.08;100.00
68169;BME280;54981;50.206;15.978;2023-02-07T07:34:40;101269.84;;;-8.93;100.00
68169;BME280;54981;50.206;15.978;2023-02-07T07:38:41;101275.28;;;-8.46;100.00
68169;BME280;54981;50.206;15.978;2023-02-07T07:42:41;101274.19;;;-8.64;100.00
68169;BME280;54981;50.206;15.978;2023-02-07T07:46:42;101276.84;;;-8.33;100.00
68169;BME280;54981;50.206;15.978;2023-02-07T07:50:42;101275.88;;;-8.50;100.00
68169;BME280;54981;50.206;15.978;2023-02-07T07:54:43;101280.16;;;-8.50;100.00
68169;BME280;54981;50.206;15.978;2023-02-07T07:58:43;101286.28;;;-8.33;100.00
68169;BME280;54981;50.206;15.978;2023-02-07T08:02:44;101293.31;;;-8.01;100.00
68169;BME280;54981;50.206;15.978;2023-02-07T08:06:44;101283.91;;;-8.01;100.00
68169;BME280;54981;50.206;15.978;2023-02-07T08:10:45;101290.66;;;-8.03;100.00
68169;BME280;54981;50.206;15.978;2023-02-07T08:14:46;101284.22;;;-7.95;100.00
68169;BME280;54981;50.206;15.978;2023-02-07T08:18:46;101284.59;;;-7.88;100.00
68169;BME280;54981;50.206;15.978;2023-02-07T08:22:47;101281.25;;;-7.71;100.00
68169;BME280;54981;50.206;15.978;2023-02-07T08:26:47;101287.72;;;-7.63;100.00
68169;BME280;54981;50.206;15.978;2023-02-07T08:30:47;101279.09;;;-7.32;100.00
68169;BME280;54981;50.206;15.978;2023-02-07T08:34:48;101267.44;;;-7.08;100.00
68169;BME280;54981;50.206;15.978;2023-02-07T08:38:49;101275.09;;;-6.78;100.00
68169;BME280;54981;50.206;15.978;2023-02-07T08:42:50;101270.66;;;-6.46;100.00
68169;BME280;54981;50.206;15.978;2023-02-07T08:46:50;101280.03;;;-6.66;100.00
68169;BME280;54981;50.206;15.978;2023-02-07T08:50:50;101281.34;;;-6.40;100.00
68169;BME280;54981;50.206;15.978;2023-02-07T08:54:51;101270.53;;;-5.97;100.00
68169;BME280;54981;50.206;15.978;2023-02-07T08:58:51;101283.31;;;-5.46;100.00
68169;BME280;54981;50.206;15.978;2023-02-07T09:02:51;101282.56;;;-5.44;100.00
68169;BME280;54981;50.206;15.978;2023-02-07T09:06:52;101282.50;;;-5.08;100.00
68169;BME280;54981;50.206;15.978;2023-02-07T09:10:52;101274.31;;;-4.59;100.00
68169;BME280;54981;50.206;15.978;2023-02-07T09:14:53;101271.63;;;-3.78;100.00
68169;BME280;54981;50.206;15.978;2023-02-07T09:18:53;101249.66;;;-3.41;100.00
68169;BME280;54981;50.206;15.978;2023-02-07T09:22:54;101260.88;;;-3.65;100.00
68169;BME280;54981;50.206;15.978;2023-02-07T09:27:13;101249.75;;;-3.15;100.00
68169;BME280;54981;50.206;15.978;2023-02-07T09:31:14;101237.91;;;-2.33;100.00
68169;BME280;54981;50.206;15.978;2023-02-07T09:35:14;101238.97;;;-2.78;100.00
68169;BME280;54981;50.206;15.978;2023-02-07T09:39:15;101248.31;;;-2.35;100.00
68169;BME280;54981;50.206;15.978;2023-02-07T09:43:37;101235.53;;;-1.75;100.00
68169;BME280;54981;50.206;15.978;2023-02-07T09:47:41;101247.63;;;-2.04;100.00
68169;BME280;54981;50.206;15.978;2023-02-07T09:51:44;101251.84;;;-2.83;100.00
68169;BME280;54981;50.206;15.978;2023-02-07T09:56:10;101249.94;;;-2.63;100.00
68169;BME280;54981;50.206;15.978;2023-02-07T10:04:47;101243.66;;;-2.44;100.00
68169;BME280;54981;50.206;15.978;2023-02-07T10:08:53;101240.91;;;-1.70;100.00
68169;BME280;54981;50.206;15.978;2023-02-07T10:27:12;101240.50;;;-0.96;100.00
68169;BME280;54981;50.206;15.978;2023-02-07T10:31:14;101234.38;;;-1.27;100.00
68169;BME280;54981;50.206;15.978;2023-02-07T10:35:26;101219.34;;;-2.17;100.00
68169;BME280;54981;50.206;15.978;2023-02-07T10:39:39;101224.53;;;-3.16;100.00
68169;BME280;54981;50.206;15.978;2023-02-07T10:43:44;101219.56;;;-2.86;100.00
68169;BME280;54981;50.206;15.978;2023-02-07T10:47:45;101212.47;;;-2.90;100.00
68169;BME280;54981;50.206;15.978;2023-02-07T10:51:46;101203.84;;;-1.57;100.00
68169;BME280;54981;50.206;15.978;2023-02-07T10:55:47;101196.53;;;-1.97;100.00
68169;BME280;54981;50.206;15.978;2023-02-07T10:59:48;101187.00;;;-1.66;100.00
68169;BME280;54981;50.206;15.978;2023-02-07T11:03:56;101184.19;;;-2.01;100.00
68169;BME280;54981;50.206;15.978;2023-02-07T11:11:57;101188.38;;;-2.06;100.00
68169;BME280;54981;50.206;15.978;2023-02-07T11:16:02;101186.75;;;-2.03;100.00
68169;BME280;54981;50.206;15.978;2023-02-07T11:20:06;101183.28;;;-1.16;100.00
68169;BME280;54981;50.206;15.978;2023-02-07T11:28:29;101193.34;;;0.01;100.00
68169;BME280;54981;50.206;15.978;2023-02-07T11:32:30;101186.66;;;-0.56;100.00
68169;BME280;54981;50.206;15.978;2023-02-07T11:36:32;101182.94;;;0.04;100.00
68169;BME280;54981;50.206;15.978;2023-02-07T11:40:37;101201.19;;;-0.68;100.00
68169;BME280;54981;50.206;15.978;2023-02-07T11:44:41;101200.53;;;-0.92;100.00
68169;BME280;54981;50.206;15.978;2023-02-07T11:48:46;101191.56;;;-1.31;100.00
68169;BME280;54981;50.206;15.978;2023-02-07T11:52:52;101185.63;;;-1.55;100.00
68169;BME280;54981;50.206;15.978;2023-02-07T11:57:00;101176.22;;;-0.22;100.00
68169;BME280;54981;50.206;15.978;2023-02-07T12:01:05;101165.22;;;-0.43;100.00
68169;BME280;54981;50.206;15.978;2023-02-07T12:05:15;101168.59;;;0.26;100.00
68169;BME280;54981;50.206;15.978;2023-02-07T12:09:28;101166.63;;;0.15;100.00
68169;BME280;54981;50.206;15.978;2023-02-07T12:13:43;101164.56;;;-0.68;100.00
68169;BME280;54981;50.206;15.978;2023-02-07T12:22:22;101165.59;;;-0.62;100.00
68169;BME280;54981;50.206;15.978;2023-02-07T12:26:31;101155.25;;;-0.90;100.00
68169;BME280;54981;50.206;15.978;2023-02-07T12:30:40;101153.19;;;-1.01;100.00
68169;BME280;54981;50.206;15.978;2023-02-07T12:34:54;101137.94;;;-0.86;100.00
68169;BME280;54981;50.206;15.978;2023-02-07T12:39:08;101142.50;;;-0.79;100.00
68169;BME280;54981;50.206;15.978;2023-02-07T12:43:34;101142.72;;;-1.03;100.00
68169;BME280;54981;50.206;15.978;2023-02-07T12:47:41;101137.69;;;-0.95;100.00
68169;BME280;54981;50.206;15.978;2023-02-07T12:56:18;101121.13;;;-0.62;100.00
68169;BME280;54981;50.206;15.978;2023-02-07T13:00:30;101120.94;;;0.42;100.00
68169;BME280;54981;50.206;15.978;2023-02-07T13:05:21;101113.38;;;0.56;100.00
68169;BME280;54981;50.206;15.978;2023-02-07T13:09:36;101117.41;;;0.01;100.00
68169;BME280;54981;50.206;15.978;2023-02-07T13:22:38;101092.53;;;-0.18;100.00
68169;BME280;54981;50.206;15.978;2023-02-07T13:27:06;101088.75;;;0.49;100.00
68169;BME280;54981;50.206;15.978;2023-02-07T13:31:14;101091.50;;;0.14;100.00
68169;BME280;54981;50.206;15.978;2023-02-07T13:35:29;101094.88;;;0.50;100.00
68169;BME280;54981;50.206;15.978;2023-02-07T13:40:04;101080.22;;;0.59;100.00
68169;BME280;54981;50.206;15.978;2023-02-07T13:44:36;101087.06;;;1.45;100.00
68169;BME280;54981;50.206;15.978;2023-02-07T13:48:49;101084.66;;;1.61;100.00
68169;BME280;54981;50.206;15.978;2023-02-07T13:53:07;101090.09;;;1.20;100.00
68169;BME280;54981;50.206;15.978;2023-02-07T14:01:57;101080.63;;;-0.04;100.00
68169;BME280;54981;50.206;15.978;2023-02-07T14:06:22;101081.78;;;0.09;100.00
68169;BME280;54981;50.206;15.978;2023-02-07T14:10:44;101084.28;;;-0.35;100.00
68169;BME280;54981;50.206;15.978;2023-02-07T14:14:46;101086.47;;;-0.16;100.00
68169;BME280;54981;50.206;15.978;2023-02-07T14:18:49;101081.06;;;-0.22;100.00
68169;BME280;54981;50.206;15.978;2023-02-07T14:26:57;101079.56;;;-0.12;100.00
68169;BME280;54981;50.206;15.978;2023-02-07T14:31:00;101076.59;;;-0.28;100.00
68169;BME280;54981;50.206;15.978;2023-02-07T14:35:05;101068.34;;;-0.45;100.00
68169;BME280;54981;50.206;15.978;2023-02-07T14:39:25;101067.53;;;-0.42;100.00
68169;BME280;54981;50.206;15.978;2023-02-07T14:43:39;101066.25;;;-0.58;100.00
68169;BME280;54981;50.206;15.978;2023-02-07T14:47:41;101064.56;;;-0.56;100.00
68169;BME280;54981;50.206;15.978;2023-02-07T14:52:03;101065.19;;;-0.30;100.00
68169;BME280;54981;50.206;15.978;2023-02-07T14:56:05;101072.16;;;-0.30;100.00
68169;BME280;54981;50.206;15.978;2023-02-07T15:04:12;101054.28;;;-0.50;100.00
68169;BME280;54981;50.206;15.978;2023-02-07T15:08:23;101062.06;;;-0.53;100.00
68169;BME280;54981;50.206;15.978;2023-02-07T15:12:26;101063.75;;;-0.53;100.00
68169;BME280;54981;50.206;15.978;2023-02-07T15:16:30;101062.06;;;-0.51;100.00
68169;BME280;54981;50.206;15.978;2023-02-07T15:20:33;101059.19;;;-0.26;100.00
68169;BME280;54981;50.206;15.978;2023-02-07T15:24:39;101056.25;;;-0.39;100.00
68169;BME280;54981;50.206;15.978;2023-02-07T15:28:46;101063.28;;;-0.38;100.00
68169;BME280;54981;50.206;15.978;2023-02-07T15:32:46;101060.44;;;-0.46;100.00
68169;BME280;54981;50.206;15.978;2023-02-07T15:36:48;101058.53;;;-0.53;100.00
68169;BME280;54981;50.206;15.978;2023-02-07T15:40:51;101066.94;;;-0.67;100.00
68169;BME280;54981;50.206;15.978;2023-02-07T15:44:54;101065.84;;;-0.75;100.00
68169;BME280;54981;50.206;15.978;2023-02-07T15:48:55;101071.75;;;-0.83;100.00
68169;BME280;54981;50.206;15.978;2023-02-07T15:53:02;101080.66;;;-1.09;100.00
68169;BME280;54981;50.206;15.978;2023-02-07T15:57:11;101089.31;;;-1.11;100.00
68169;BME280;54981;50.206;15.978;2023-02-07T16:01:16;101097.13;;;-1.13;100.00
68169;BME280;54981;50.206;15.978;2023-02-07T16:05:24;101103.84;;;-1.53;100.00
68169;BME280;54981;50.206;15.978;2023-02-07T16:09:34;101103.34;;;-1.69;100.00
68169;BME280;54981;50.206;15.978;2023-02-07T16:13:43;101103.28;;;-1.71;100.00
68169;BME280;54981;50.206;15.978;2023-02-07T16:17:44;101114.91;;;-1.61;100.00
68169;BME280;54981;50.206;15.978;2023-02-07T16:21:50;101116.91;;;-1.53;100.00
68169;BME280;54981;50.206;15.978;2023-02-07T16:25:51;101120.41;;;-1.82;100.00
68169;BME280;54981;50.206;15.978;2023-02-07T16:29:53;101121.72;;;-1.95;100.00
68169;BME280;54981;50.206;15.978;2023-02-07T16:33:53;101121.97;;;-2.16;100.00
68169;BME280;54981;50.206;15.978;2023-02-07T16:37:54;101134.72;;;-2.25;100.00
68169;BME280;54981;50.206;15.978;2023-02-07T16:41:59;101147.84;;;-2.22;100.00
68169;BME280;54981;50.206;15.978;2023-02-07T16:46:01;101148.53;;;-2.28;100.00
68169;BME280;54981;50.206;15.978;2023-02-07T16:50:02;101149.56;;;-2.23;100.00
68169;BME280;54981;50.206;15.978;2023-02-07T16:54:03;101147.22;;;-2.41;100.00
68169;BME280;54981;50.206;15.978;2023-02-07T16:58:04;101156.06;;;-2.88;100.00
68169;BME280;54981;50.206;15.978;2023-02-07T17:02:12;101155.69;;;-2.99;100.00
68169;BME280;54981;50.206;15.978;2023-02-07T17:06:18;101156.28;;;-3.06;100.00
68169;BME280;54981;50.206;15.978;2023-02-07T17:10:24;101156.09;;;-3.12;100.00
68169;BME280;54981;50.206;15.978;2023-02-07T17:14:25;101151.69;;;-3.13;100.00
68169;BME280;54981;50.206;15.978;2023-02-07T17:18:25;101155.13;;;-3.14;100.00
68169;BME280;54981;50.206;15.978;2023-02-07T17:22:26;101152.97;;;-3.26;100.00
68169;BME280;54981;50.206;15.978;2023-02-07T17:26:27;101156.78;;;-3.16;100.00
68169;BME280;54981;50.206;15.978;2023-02-07T17:30:38;101158.72;;;-3.11;100.00
68169;BME280;54981;50.206;15.978;2023-02-07T17:34:39;101152.63;;;-3.11;100.00
68169;BME280;54981;50.206;15.978;2023-02-07T17:38:40;101155.66;;;-3.47;100.00
68169;BME280;54981;50.206;15.978;2023-02-07T17:42:40;101162.34;;;-3.54;100.00
68169;BME280;54981;50.206;15.978;2023-02-07T17:46:40;101164.88;;;-3.33;100.00
68169;BME280;54981;50.206;15.978;2023-02-07T17:50:41;101158.47;;;-3.18;100.00
68169;BME280;54981;50.206;15.978;2023-02-07T17:54:41;101159.31;;;-3.19;100.00
68169;BME280;54981;50.206;15.978;2023-02-07T17:58:44;101164.78;;;-3.12;100.00
68169;BME280;54981;50.206;15.978;2023-02-07T18:02:45;101175.78;;;-4.11;100.00
68169;BME280;54981;50.206;15.978;2023-02-07T18:06:45;101184.66;;;-4.05;100.00
68169;BME280;54981;50.206;15.978;2023-02-07T18:10:47;101185.25;;;-3.90;100.00
68169;BME280;54981;50.206;15.978;2023-02-07T18:14:47;101180.72;;;-3.51;100.00
68169;BME280;54981;50.206;15.978;2023-02-07T18:18:48;101190.41;;;-3.92;100.00
68169;BME280;54981;50.206;15.978;2023-02-07T18:22:54;101197.84;;;-4.22;100.00
68169;BME280;54981;50.206;15.978;2023-02-07T18:26:54;101208.50;;;-4.37;100.00
68169;BME280;54981;50.206;15.978;2023-02-07T18:30:55;101211.34;;;-3.66;100.00
68169;BME280;54981;50.206;15.978;2023-02-07T18:34:55;101210.66;;;-4.05;100.00
68169;BME280;54981;50.206;15.978;2023-02-07T18:38:56;101213.47;;;-4.22;100.00
68169;BME280;54981;50.206;15.978;2023-02-07T18:42:56;101210.00;;;-4.00;100.00
68169;BME280;54981;50.206;15.978;2023-02-07T18:46:57;101215.69;;;-4.52;100.00
68169;BME280;54981;50.206;15.978;2023-02-07T18:50:57;101222.03;;;-4.65;100.00
68169;BME280;54981;50.206;15.978;2023-02-07T18:54:58;101223.47;;;-4.93;100.00
68169;BME280;54981;50.206;15.978;2023-02-07T18:58:58;101215.34;;;-4.79;100.00
68169;BME280;54981;50.206;15.978;2023-02-07T19:02:58;101220.16;;;-5.27;100.00
68169;BME280;54981;50.206;15.978;2023-02-07T19:06:59;101216.69;;;-5.08;100.00
68169;BME280;54981;50.206;15.978;2023-02-07T19:11:04;101223.56;;;-5.28;100.00
68169;BME280;54981;50.206;15.978;2023-02-07T19:15:05;101224.38;;;-5.29;100.00
68169;BME280;54981;50.206;15.978;2023-02-07T19:19:06;101224.94;;;-5.17;100.00
68169;BME280;54981;50.206;15.978;2023-02-07T19:23:06;101224.78;;;-5.20;100.00
68169;BME280;54981;50.206;15.978;2023-02-07T19:27:08;101217.41;;;-4.92;100.00
68169;BME280;54981;50.206;15.978;2023-02-07T19:31:10;101217.34;;;-5.13;100.00
68169;BME280;54981;50.206;15.978;2023-02-07T19:35:17;101227.16;;;-5.07;100.00
68169;BME280;54981;50.206;15.978;2023-02-07T19:39:17;101226.38;;;-5.04;100.00
68169;BME280;54981;50.206;15.978;2023-02-07T19:43:18;101230.28;;;-5.14;100.00
68169;BME280;54981;50.206;15.978;2023-02-07T19:47:18;101234.66;;;-5.13;100.00
68169;BME280;54981;50.206;15.978;2023-02-07T19:51:21;101235.72;;;-5.83;100.00
68169;BME280;54981;50.206;15.978;2023-02-07T19:55:22;101230.16;;;-5.72;100.00
68169;BME280;54981;50.206;15.978;2023-02-07T19:59:22;101240.84;;;-5.66;100.00
68169;BME280;54981;50.206;15.978;2023-02-07T20:03:24;101246.03;;;-5.66;100.00
68169;BME280;54981;50.206;15.978;2023-02-07T20:07:24;101244.19;;;-5.69;100.00
68169;BME280;54981;50.206;15.978;2023-02-07T20:11:25;101245.38;;;-5.62;100.00
68169;BME280;54981;50.206;15.978;2023-02-07T20:15:25;101258.94;;;-5.50;100.00
68169;BME280;54981;50.206;15.978;2023-02-07T20:19:26;101256.63;;;-5.62;100.00
68169;BME280;54981;50.206;15.978;2023-02-07T20:23:27;101253.94;;;-5.63;100.00
68169;BME280;54981;50.206;15.978;2023-02-07T20:27:27;101254.41;;;-5.54;100.00
68169;BME280;54981;50.206;15.978;2023-02-07T20:31:28;101253.06;;;-5.64;100.00
68169;BME280;54981;50.206;15.978;2023-02-07T20:35:30;101253.38;;;-5.58;100.00
68169;BME280;54981;50.206;15.978;2023-02-07T20:39:31;101254.25;;;-5.57;100.00
68169;BME280;54981;50.206;15.978;2023-02-07T20:43:32;101251.75;;;-5.91;100.00
68169;BME280;54981;50.206;15.978;2023-02-07T20:47:32;101251.34;;;-6.01;100.00
68169;BME280;54981;50.206;15.978;2023-02-07T20:51:33;101256.50;;;-6.18;100.00
68169;BME280;54981;50.206;15.978;2023-02-07T20:55:33;101257.09;;;-6.24;100.00
68169;BME280;54981;50.206;15.978;2023-02-07T20:59:34;101254.63;;;-6.21;100.00
68169;BME280;54981;50.206;15.978;2023-02-07T21:03:34;101254.63;;;-6.21;100.00
68169;BME280;54981;50.206;15.978;2023-02-07T21:07:34;101258.44;;;-6.14;100.00
68169;BME280;54981;50.206;15.978;2023-02-07T21:11:43;101262.47;;;-6.37;100.00
68169;BME280;54981;50.206;15.978;2023-02-07T21:15:44;101263.53;;;-6.50;100.00
68169;BME280;54981;50.206;15.978;2023-02-07T21:19:46;101259.19;;;-6.68;100.00
68169;BME280;54981;50.206;15.978;2023-02-07T21:23:46;101264.69;;;-6.61;100.00
68169;BME280;54981;50.206;15.978;2023-02-07T21:27:47;101262.56;;;-6.52;100.00
68169;BME280;54981;50.206;15.978;2023-02-07T21:31:48;101260.88;;;-6.52;100.00
68169;BME280;54981;50.206;15.978;2023-02-07T21:35:48;101269.06;;;-6.44;100.00
68169;BME280;54981;50.206;15.978;2023-02-07T21:39:49;101265.34;;;-6.49;100.00
68169;BME280;54981;50.206;15.978;2023-02-07T21:43:49;101272.78;;;-6.55;100.00
68169;BME280;54981;50.206;15.978;2023-02-07T21:47:50;101265.34;;;-6.49;100.00
68169;BME280;54981;50.206;15.978;2023-02-07T21:51:50;101268.72;;;-6.50;100.00
68169;BME280;54981;50.206;15.978;2023-02-07T21:55:52;101279.09;;;-6.67;100.00
68169;BME280;54981;50.206;15.978;2023-02-07T21:59:53;101271.19;;;-6.70;100.00
68169;BME280;54981;50.206;15.978;2023-02-07T22:03:55;101275.63;;;-6.67;100.00
68169;BME280;54981;50.206;15.978;2023-02-07T22:07:56;101275.22;;;-6.91;100.00
68169;BME280;54981;50.206;15.978;2023-02-07T22:11:57;101266.81;;;-6.87;100.00